sensor_id;sensor_type;location;lat;lon;timestamp;temperature;humidity
11764;DHT22;5939;56.522;14.950;2023-07-22T00:01:23;14.80;99.90
11764;DHT22;5939;56.522;14.950;2023-07-22T00:03:49;14.80;99.90
11764;DHT22;5939;56.522;14.950;2023-07-22T00:06:15;14.80;99.90
11764;DHT22;5939;56.522;14.950;2023-07-22T00:08:40;14.80;99.90
11764;DHT22;5939;56.522;14.950;2023-07-22T00:11:07;14.80;99.90
11764;DHT22;5939;56.522;14.950;2023-07-22T00:13:33;14.80;99.90
11764;DHT22;5939;56.522;14.950;2023-07-22T00:15:59;14.70;99.90
11764;DHT22;5939;56.522;14.950;2023-07-22T00:18:26;14.70;99.90
11764;DHT22;5939;56.522;14.950;2023-07-22T00:20:53;14.70;99.90
11764;DHT22;5939;56.522;14.950;2023-07-22T00:23:19;14.70;99.90
11764;DHT22;5939;56.522;14.950;2023-07-22T00:25:48;14.60;99.90
11764;DHT22;5939;56.522;14.950;2023-07-22T00:28:15;14.60;99.90
11764;DHT22;5939;56.522;14.950;2023-07-22T00:30:41;14.60;99.90
11764;DHT22;5939;56.522;14.950;2023-07-22T00:33:07;14.60;99.90
11764;DHT22;5939;56.522;14.950;2023-07-22T00:35:33;14.60;99.90
11764;DHT22;5939;56.522;14.950;2023-07-22T00:38:00;14.60;99.90
11764;DHT22;5939;56.522;14.950;2023-07-22T00:40:26;14.50;99.90
11764;DHT22;5939;56.522;14.950;2023-07-22T00:42:52;14.50;99.90
11764;DHT22;5939;56.522;14.950;2023-07-22T00:45:18;14.50;99.90
11764;DHT22;5939;56.522;14.950;2023-07-22T00:47:44;14.50;99.90
11764;DHT22;5939;56.522;14.950;2023-07-22T00:50:10;14.50;99.90
11764;DHT22;5939;56.522;14.950;2023-07-22T00:52:37;14.40;99.90
11764;DHT22;5939;56.522;14.950;2023-07-22T00:55:04;14.40;99.90
11764;DHT22;5939;56.522;14.950;2023-07-22T00:57:30;14.40;99.90
11764;DHT22;5939;56.522;14.950;2023-07-22T00:59:56;14.40;99.90
11764;DHT22;5939;56.522;14.950;2023-07-22T01:02:22;14.40;99.90
11764;DHT22;5939;56.522;14.950;2023-07-22T01:04:49;14.30;99.90
11764;DHT22;5939;56.522;14.950;2023-07-22T01:07:15;14.30;99.90
11764;DHT22;5939;56.522;14.950;2023-07-22T01:09:42;14.30;99.90
11764;DHT22;5939;56.522;14.950;2023-07-22T01:12:09;14.30;99.90
11764;DHT22;5939;56.522;14.950;2023-07-22T01:14:37;14.30;99.90
11764;DHT22;5939;56.522;14.950;2023-07-22T01:17:04;14.30;99.90
11764;DHT22;5939;56.522;14.950;2023-07-22T01:19:31;14.20;99.90
11764;DHT22;5939;56.522;14.950;2023-07-22T01:22:01;14.20;99.90
11764;DHT22;5939;56.522;14.950;2023-07-22T01:24:30;14.20;99.90
11764;DHT22;5939;56.522;14.950;2023-07-22T01:26:56;14.20;99.90
11764;DHT22;5939;56.522;14.950;2023-07-22T01:29:23;14.20;99.90
11764;DHT22;5939;56.522;14.950;2023-07-22T01:31:51;14.20;99.90
11764;DHT22;5939;56.522;14.950;2023-07-22T01:34:17;14.10;99.90
11764;DHT22;5939;56.522;14.950;2023-07-22T01:36:44;14.10;99.90
11764;DHT22;5939;56.522;14.950;2023-07-22T01:39:10;14.10;99.90
11764;DHT22;5939;56.522;14.950;2023-07-22T01:41:37;14.10;99.90
11764;DHT22;5939;56.522;14.950;2023-07-22T01:44:02;14.10;99.90
11764;DHT22;5939;56.522;14.950;2023-07-22T01:46:28;14.00;99.90
11764;DHT22;5939;56.522;14.950;2023-07-22T01:48:55;14.00;99.90
11764;DHT22;5939;56.522;14.950;2023-07-22T01:51:21;14.00;99.90
11764;DHT22;5939;56.522;14.950;2023-07-22T01:53:47;14.00;99.90
11764;DHT22;5939;56.522;14.950;2023-07-22T01:56:12;14.00;99.90
11764;DHT22;5939;56.522;14.950;2023-07-22T01:58:38;14.00;99.90
11764;DHT22;5939;56.522;14.950;2023-07-22T02:01:04;13.90;99.90
11764;DHT22;5939;56.522;14.950;2023-07-22T02:03:30;13.90;99.90
11764;DHT22;5939;56.522;14.950;2023-07-22T02:06:04;13.90;99.90
11764;DHT22;5939;56.522;14.950;2023-07-22T02:08:30;13.90;99.90
11764;DHT22;5939;56.522;14.950;2023-07-22T02:11:01;13.90;99.90
11764;DHT22;5939;56.522;14.950;2023-07-22T02:13:26;13.90;99.90
11764;DHT22;5939;56.522;14.950;2023-07-22T02:15:52;13.90;99.90
11764;DHT22;5939;56.522;14.950;2023-07-22T02:18:18;13.90;99.90
11764;DHT22;5939;56.522;14.950;2023-07-22T02:20:43;13.90;99.90
11764;DHT22;5939;56.522;14.950;2023-07-22T02:23:09;13.80;99.90
11764;DHT22;5939;56.522;14.950;2023-07-22T02:25:35;13.80;99.90
11764;DHT22;5939;56.522;14.950;2023-07-22T02:28:01;13.80;99.90
11764;DHT22;5939;56.522;14.950;2023-07-22T02:30:27;13.80;99.90
11764;DHT22;5939;56.522;14.950;2023-07-22T02:32:53;13.80;99.90
11764;DHT22;5939;56.522;14.950;2023-07-22T02:35:18;13.80;99.90
11764;DHT22;5939;56.522;14.950;2023-07-22T02:37:44;13.80;99.90
11764;DHT22;5939;56.522;14.950;2023-07-22T02:40:10;13.80;99.90
11764;DHT22;5939;56.522;14.950;2023-07-22T02:42:39;13.80;99.90
11764;DHT22;5939;56.522;14.950;2023-07-22T02:45:05;13.80;99.90
11764;DHT22;5939;56.522;14.950;2023-07-22T02:47:33;13.70;99.90
11764;DHT22;5939;56.522;14.950;2023-07-22T02:50:00;13.70;99.90
11764;DHT22;5939;56.522;14.950;2023-07-22T02:52:25;13.70;99.90
11764;DHT22;5939;56.522;14.950;2023-07-22T02:55:09;13.70;99.90
11764;DHT22;5939;56.522;14.950;2023-07-22T02:57:36;13.70;99.90
11764;DHT22;5939;56.522;14.950;2023-07-22T03:00:03;13.70;99.90
11764;DHT22;5939;56.522;14.950;2023-07-22T03:02:39;13.70;99.90
11764;DHT22;5939;56.522;14.950;2023-07-22T03:05:08;13.70;99.90
11764;DHT22;5939;56.522;14.950;2023-07-22T03:07:36;13.70;99.90
11764;DHT22;5939;56.522;14.950;2023-07-22T03:10:02;13.70;99.90
11764;DHT22;5939;56.522;14.950;2023-07-22T03:12:28;13.70;99.90
11764;DHT22;5939;56.522;14.950;2023-07-22T03:14:54;13.70;99.90
11764;DHT22;5939;56.522;14.950;2023-07-22T03:17:20;13.70;99.90
11764;DHT22;5939;56.522;14.950;2023-07-22T03:19:46;13.70;99.90
11764;DHT22;5939;56.522;14.950;2023-07-22T03:22:14;13.70;99.90
11764;DHT22;5939;56.522;14.950;2023-07-22T03:24:41;13.60;99.90
11764;DHT22;5939;56.522;14.950;2023-07-22T03:27:07;13.60;99.90
11764;DHT22;5939;56.522;14.950;2023-07-22T03:29:33;13.60;99.90
11764;DHT22;5939;56.522;14.950;2023-07-22T03:31:58;13.60;99.90
11764;DHT22;5939;56.522;14.950;2023-07-22T03:34:26;13.60;99.90
11764;DHT22;5939;56.522;14.950;2023-07-22T03:36:52;13.60;99.90
11764;DHT22;5939;56.522;14.950;2023-07-22T03:39:17;13.60;99.90
11764;DHT22;5939;56.522;14.950;2023-07-22T03:41:43;13.60;99.90
11764;DHT22;5939;56.522;14.950;2023-07-22T03:44:09;13.60;99.90
11764;DHT22;5939;56.522;14.950;2023-07-22T03:46:34;13.60;99.90
11764;DHT22;5939;56.522;14.950;2023-07-22T03:49:00;13.60;99.90
11764;DHT22;5939;56.522;14.950;2023-07-22T03:51:26;13.60;99.90
11764;DHT22;5939;56.522;14.950;2023-07-22T03:53:51;13.60;99.90
11764;DHT22;5939;56.522;14.950;2023-07-22T03:56:17;13.60;99.90
11764;DHT22;5939;56.522;14.950;2023-07-22T03:58:43;13.60;99.90
11764;DHT22;5939;56.522;14.950;2023-07-22T04:01:11;13.60;99.90
11764;DHT22;5939;56.522;14.950;2023-07-22T04:03:36;13.60;99.90
11764;DHT22;5939;56.522;14.950;2023-07-22T04:06:02;13.60;99.90
11764;DHT22;5939;56.522;14.950;2023-07-22T04:08:28;13.60;99.90
11764;DHT22;5939;56.522;14.950;2023-07-22T04:10:54;13.60;99.90
11764;DHT22;5939;56.522;14.950;2023-07-22T04:13:21;13.60;99.90
11764;DHT22;5939;56.522;14.950;2023-07-22T04:15:47;13.60;99.90
11764;DHT22;5939;56.522;14.950;2023-07-22T04:18:15;13.60;99.90
11764;DHT22;5939;56.522;14.950;2023-07-22T04:20:41;13.60;99.90
11764;DHT22;5939;56.522;14.950;2023-07-22T04:23:07;13.60;99.90
11764;DHT22;5939;56.522;14.950;2023-07-22T04:25:32;13.60;99.90
11764;DHT22;5939;56.522;14.950;2023-07-22T04:27:58;13.60;99.90
11764;DHT22;5939;56.522;14.950;2023-07-22T04:30:23;13.60;99.90
11764;DHT22;5939;56.522;14.950;2023-07-22T04:32:50;13.60;99.90
11764;DHT22;5939;56.522;14.950;2023-07-22T04:35:19;13.60;99.90
11764;DHT22;5939;56.522;14.950;2023-07-22T04:37:45;13.60;99.90
11764;DHT22;5939;56.522;14.950;2023-07-22T04:40:11;13.60;99.90
11764;DHT22;5939;56.522;14.950;2023-07-22T04:42:42;13.60;99.90
11764;DHT22;5939;56.522;14.950;2023-07-22T04:45:09;13.60;99.90
11764;DHT22;5939;56.522;14.950;2023-07-22T04:47:38;13.60;99.90
11764;DHT22;5939;56.522;14.950;2023-07-22T04:50:08;13.60;99.90
11764;DHT22;5939;56.522;14.950;2023-07-22T04:52:36;13.60;99.90
11764;DHT22;5939;56.522;14.950;2023-07-22T04:55:03;13.70;99.90
11764;DHT22;5939;56.522;14.950;2023-07-22T04:57:35;13.60;99.90
11764;DHT22;5939;56.522;14.950;2023-07-22T05:00:02;13.60;99.90
11764;DHT22;5939;56.522;14.950;2023-07-22T05:02:29;13.60;99.90
11764;DHT22;5939;56.522;14.950;2023-07-22T05:04:56;13.60;99.90
11764;DHT22;5939;56.522;14.950;2023-07-22T05:07:22;13.60;99.90
11764;DHT22;5939;56.522;14.950;2023-07-22T05:09:48;13.60;99.90
11764;DHT22;5939;56.522;14.950;2023-07-22T05:12:14;13.60;99.90
11764;DHT22;5939;56.522;14.950;2023-07-22T05:14:39;13.70;99.90
11764;DHT22;5939;56.522;14.950;2023-07-22T05:17:05;13.70;99.90
11764;DHT22;5939;56.522;14.950;2023-07-22T05:19:31;13.70;99.90
11764;DHT22;5939;56.522;14.950;2023-07-22T05:21:57;13.70;99.90
11764;DHT22;5939;56.522;14.950;2023-07-22T05:24:22;13.70;99.90
11764;DHT22;5939;56.522;14.950;2023-07-22T05:26:48;13.70;99.90
11764;DHT22;5939;56.522;14.950;2023-07-22T05:29:14;13.70;99.90
11764;DHT22;5939;56.522;14.950;2023-07-22T05:31:39;13.70;99.90
11764;DHT22;5939;56.522;14.950;2023-07-22T05:34:05;13.70;99.90
11764;DHT22;5939;56.522;14.950;2023-07-22T05:36:31;13.70;99.90
11764;DHT22;5939;56.522;14.950;2023-07-22T05:38:57;13.70;99.90
11764;DHT22;5939;56.522;14.950;2023-07-22T05:41:23;13.70;99.90
11764;DHT22;5939;56.522;14.950;2023-07-22T05:43:48;13.70;99.90
11764;DHT22;5939;56.522;14.950;2023-07-22T05:46:14;13.70;99.90
11764;DHT22;5939;56.522;14.950;2023-07-22T05:48:40;13.70;99.90
11764;DHT22;5939;56.522;14.950;2023-07-22T05:51:05;13.70;99.90
11764;DHT22;5939;56.522;14.950;2023-07-22T05:53:32;13.80;99.90
11764;DHT22;5939;56.522;14.950;2023-07-22T05:55:58;13.80;99.90
11764;DHT22;5939;56.522;14.950;2023-07-22T05:58:23;13.80;99.90
11764;DHT22;5939;56.522;14.950;2023-07-22T06:00:49;13.80;99.90
11764;DHT22;5939;56.522;14.950;2023-07-22T06:03:17;13.80;99.90
11764;DHT22;5939;56.522;14.950;2023-07-22T06:05:43;13.80;99.90
11764;DHT22;5939;56.522;14.950;2023-07-22T06:08:08;13.80;99.90
11764;DHT22;5939;56.522;14.950;2023-07-22T06:10:34;13.80;99.90
11764;DHT22;5939;56.522;14.950;2023-07-22T06:13:02;13.90;99.90
11764;DHT22;5939;56.522;14.950;2023-07-22T06:15:27;13.80;99.90
11764;DHT22;5939;56.522;14.950;2023-07-22T06:17:53;13.90;99.90
11764;DHT22;5939;56.522;14.950;2023-07-22T06:20:19;13.90;99.90
11764;DHT22;5939;56.522;14.950;2023-07-22T06:22:44;13.90;99.90
11764;DHT22;5939;56.522;14.950;2023-07-22T06:25:10;13.90;99.90
11764;DHT22;5939;56.522;14.950;2023-07-22T06:27:36;13.90;99.90
11764;DHT22;5939;56.522;14.950;2023-07-22T06:30:02;13.90;99.90
11764;DHT22;5939;56.522;14.950;2023-07-22T06:32:28;14.00;99.90
11764;DHT22;5939;56.522;14.950;2023-07-22T06:34:56;14.00;99.90
11764;DHT22;5939;56.522;14.950;2023-07-22T06:37:22;14.00;99.90
11764;DHT22;5939;56.522;14.950;2023-07-22T06:39:48;14.00;99.90
11764;DHT22;5939;56.522;14.950;2023-07-22T06:42:14;14.10;99.90
11764;DHT22;5939;56.522;14.950;2023-07-22T06:44:39;14.10;99.90
11764;DHT22;5939;56.522;14.950;2023-07-22T06:47:05;14.20;99.90
11764;DHT22;5939;56.522;14.950;2023-07-22T06:49:31;14.10;99.90
11764;DHT22;5939;56.522;14.950;2023-07-22T06:51:56;14.20;99.90
11764;DHT22;5939;56.522;14.950;2023-07-22T06:54:22;14.20;99.90
11764;DHT22;5939;56.522;14.950;2023-07-22T06:56:48;14.30;99.90
11764;DHT22;5939;56.522;14.950;2023-07-22T06:59:13;14.30;99.90
11764;DHT22;5939;56.522;14.950;2023-07-22T07:01:39;14.40;99.90
11764;DHT22;5939;56.522;14.950;2023-07-22T07:04:04;14.40;99.90
11764;DHT22;5939;56.522;14.950;2023-07-22T07:06:31;14.50;99.90
11764;DHT22;5939;56.522;14.950;2023-07-22T07:08:59;14.60;99.90
11764;DHT22;5939;56.522;14.950;2023-07-22T07:11:26;14.60;99.90
11764;DHT22;5939;56.522;14.950;2023-07-22T07:13:52;14.80;99.90
11764;DHT22;5939;56.522;14.950;2023-07-22T07:16:25;14.90;99.90
11764;DHT22;5939;56.522;14.950;2023-07-22T07:18:51;14.90;99.90
11764;DHT22;5939;56.522;14.950;2023-07-22T07:21:21;15.00;99.90
11764;DHT22;5939;56.522;14.950;2023-07-22T07:23:47;15.10;99.90
11764;DHT22;5939;56.522;14.950;2023-07-22T07:26:13;15.10;99.90
11764;DHT22;5939;56.522;14.950;2023-07-22T07:28:39;15.20;99.90
11764;DHT22;5939;56.522;14.950;2023-07-22T07:31:05;15.30;99.90
11764;DHT22;5939;56.522;14.950;2023-07-22T07:33:30;15.30;99.90
11764;DHT22;5939;56.522;14.950;2023-07-22T07:35:56;15.40;99.90
11764;DHT22;5939;56.522;14.950;2023-07-22T07:38:22;15.50;99.90
11764;DHT22;5939;56.522;14.950;2023-07-22T07:41:09;15.50;99.90
11764;DHT22;5939;56.522;14.950;2023-07-22T07:43:37;15.60;99.90
11764;DHT22;5939;56.522;14.950;2023-07-22T07:46:24;15.70;99.90
11764;DHT22;5939;56.522;14.950;2023-07-22T07:48:55;15.90;99.90
11764;DHT22;5939;56.522;14.950;2023-07-22T07:51:22;16.00;99.90
11764;DHT22;5939;56.522;14.950;2023-07-22T07:53:49;16.10;99.90
11764;DHT22;5939;56.522;14.950;2023-07-22T07:56:17;16.20;99.90
11764;DHT22;5939;56.522;14.950;2023-07-22T07:58:43;16.20;99.90
11764;DHT22;5939;56.522;14.950;2023-07-22T08:01:09;16.30;99.90
11764;DHT22;5939;56.522;14.950;2023-07-22T08:03:36;16.30;99.90
11764;DHT22;5939;56.522;14.950;2023-07-22T08:06:03;16.40;99.90
11764;DHT22;5939;56.522;14.950;2023-07-22T08:08:28;16.50;99.90
11764;DHT22;5939;56.522;14.950;2023-07-22T08:11:06;16.50;99.90
11764;DHT22;5939;56.522;14.950;2023-07-22T08:13:31;16.60;99.90
11764;DHT22;5939;56.522;14.950;2023-07-22T08:16:02;16.60;99.90
11764;DHT22;5939;56.522;14.950;2023-07-22T08:18:29;16.70;99.90
11764;DHT22;5939;56.522;14.950;2023-07-22T08:20:56;16.70;99.90
11764;DHT22;5939;56.522;14.950;2023-07-22T08:23:22;16.80;99.90
11764;DHT22;5939;56.522;14.950;2023-07-22T08:25:49;16.80;99.90
11764;DHT22;5939;56.522;14.950;2023-07-22T08:28:14;16.80;99.90
11764;DHT22;5939;56.522;14.950;2023-07-22T08:30:40;16.80;99.90
11764;DHT22;5939;56.522;14.950;2023-07-22T08:33:11;16.90;99.90
11764;DHT22;5939;56.522;14.950;2023-07-22T08:35:37;16.90;99.90
11764;DHT22;5939;56.522;14.950;2023-07-22T08:38:03;17.00;99.90
11764;DHT22;5939;56.522;14.950;2023-07-22T08:40:41;17.00;99.90
11764;DHT22;5939;56.522;14.950;2023-07-22T08:43:09;17.00;99.90
11764;DHT22;5939;56.522;14.950;2023-07-22T08:45:37;17.00;99.90
11764;DHT22;5939;56.522;14.950;2023-07-22T08:48:08;17.00;99.90
11764;DHT22;5939;56.522;14.950;2023-07-22T08:50:46;17.10;99.90
11764;DHT22;5939;56.522;14.950;2023-07-22T08:53:15;17.10;99.90
11764;DHT22;5939;56.522;14.950;2023-07-22T08:55:42;17.10;99.90
11764;DHT22;5939;56.522;14.950;2023-07-22T08:58:09;17.10;99.90
11764;DHT22;5939;56.522;14.950;2023-07-22T09:00:35;17.20;99.90
11764;DHT22;5939;56.522;14.950;2023-07-22T09:03:01;17.20;99.90
11764;DHT22;5939;56.522;14.950;2023-07-22T09:05:27;17.20;99.90
11764;DHT22;5939;56.522;14.950;2023-07-22T09:07:55;17.20;99.90
11764;DHT22;5939;56.522;14.950;2023-07-22T09:10:22;17.20;99.90
11764;DHT22;5939;56.522;14.950;2023-07-22T09:12:51;17.30;99.90
11764;DHT22;5939;56.522;14.950;2023-07-22T09:15:18;17.30;99.90
11764;DHT22;5939;56.522;14.950;2023-07-22T09:17:44;17.30;99.90
11764;DHT22;5939;56.522;14.950;2023-07-22T09:20:12;17.30;99.90
11764;DHT22;5939;56.522;14.950;2023-07-22T09:22:47;17.30;99.90
11764;DHT22;5939;56.522;14.950;2023-07-22T09:25:14;17.30;99.90
11764;DHT22;5939;56.522;14.950;2023-07-22T09:27:40;17.30;99.90
11764;DHT22;5939;56.522;14.950;2023-07-22T09:30:30;17.30;99.90
11764;DHT22;5939;56.522;14.950;2023-07-22T09:33:01;17.30;99.90
11764;DHT22;5939;56.522;14.950;2023-07-22T09:35:45;17.30;99.90
11764;DHT22;5939;56.522;14.950;2023-07-22T09:38:11;17.30;99.90
11764;DHT22;5939;56.522;14.950;2023-07-22T09:40:40;17.30;99.90
11764;DHT22;5939;56.522;14.950;2023-07-22T09:43:08;17.30;99.90
11764;DHT22;5939;56.522;14.950;2023-07-22T09:45:35;17.30;99.90
11764;DHT22;5939;56.522;14.950;2023-07-22T09:48:00;17.30;99.90
11764;DHT22;5939;56.522;14.950;2023-07-22T09:50:26;17.30;99.90
11764;DHT22;5939;56.522;14.950;2023-07-22T09:52:55;17.20;99.90
11764;DHT22;5939;56.522;14.950;2023-07-22T09:55:23;17.20;99.90
11764;DHT22;5939;56.522;14.950;2023-07-22T10:00:24;17.20;99.90
11764;DHT22;5939;56.522;14.950;2023-07-22T10:02:51;17.20;99.90
11764;DHT22;5939;56.522;14.950;2023-07-22T10:05:18;17.10;99.90
11764;DHT22;5939;56.522;14.950;2023-07-22T10:07:55;17.10;99.90
11764;DHT22;5939;56.522;14.950;2023-07-22T10:10:25;17.10;99.90
11764;DHT22;5939;56.522;14.950;2023-07-22T10:12:51;17.10;99.90
11764;DHT22;5939;56.522;14.950;2023-07-22T10:15:19;17.00;99.90
11764;DHT22;5939;56.522;14.950;2023-07-22T10:17:45;17.00;99.90
11764;DHT22;5939;56.522;14.950;2023-07-22T10:20:12;17.00;99.90
11764;DHT22;5939;56.522;14.950;2023-07-22T10:22:42;17.00;99.90
11764;DHT22;5939;56.522;14.950;2023-07-22T10:25:19;17.00;99.90
11764;DHT22;5939;56.522;14.950;2023-07-22T10:27:46;17.00;99.90
11764;DHT22;5939;56.522;14.950;2023-07-22T10:30:13;17.10;99.90
11764;DHT22;5939;56.522;14.950;2023-07-22T10:32:41;17.10;99.90
11764;DHT22;5939;56.522;14.950;2023-07-22T10:35:12;17.10;99.90
11764;DHT22;5939;56.522;14.950;2023-07-22T10:37:39;17.20;99.90
11764;DHT22;5939;56.522;14.950;2023-07-22T10:40:26;17.20;99.90
11764;DHT22;5939;56.522;14.950;2023-07-22T10:43:06;17.20;99.90
11764;DHT22;5939;56.522;14.950;2023-07-22T10:45:33;17.20;99.90
11764;DHT22;5939;56.522;14.950;2023-07-22T10:48:12;17.20;99.90
11764;DHT22;5939;56.522;14.950;2023-07-22T10:50:44;17.30;99.90
11764;DHT22;5939;56.522;14.950;2023-07-22T10:53:37;17.30;99.90
11764;DHT22;5939;56.522;14.950;2023-07-22T10:56:14;17.30;99.90
11764;DHT22;5939;56.522;14.950;2023-07-22T11:11:56;17.40;99.90
11764;DHT22;5939;56.522;14.950;2023-07-22T11:14:25;17.50;99.90
11764;DHT22;5939;56.522;14.950;2023-07-22T11:16:51;17.60;99.90
11764;DHT22;5939;56.522;14.950;2023-07-22T11:19:18;17.60;99.90
11764;DHT22;5939;56.522;14.950;2023-07-22T11:21:45;17.70;99.90
11764;DHT22;5939;56.522;14.950;2023-07-22T11:24:12;17.80;99.90
11764;DHT22;5939;56.522;14.950;2023-07-22T11:26:38;17.90;99.90
11764;DHT22;5939;56.522;14.950;2023-07-22T11:29:05;18.00;99.90
11764;DHT22;5939;56.522;14.950;2023-07-22T11:31:32;18.10;99.90
11764;DHT22;5939;56.522;14.950;2023-07-22T11:33:58;18.20;99.90
11764;DHT22;5939;56.522;14.950;2023-07-22T11:36:28;18.30;99.90
11764;DHT22;5939;56.522;14.950;2023-07-22T11:39:10;18.40;99.90
11764;DHT22;5939;56.522;14.950;2023-07-22T11:41:37;18.50;99.90
11764;DHT22;5939;56.522;14.950;2023-07-22T11:44:04;18.60;99.90
11764;DHT22;5939;56.522;14.950;2023-07-22T11:46:34;18.60;99.90
11764;DHT22;5939;56.522;14.950;2023-07-22T11:49:02;18.70;99.90
11764;DHT22;5939;56.522;14.950;2023-07-22T11:51:28;18.80;99.90
11764;DHT22;5939;56.522;14.950;2023-07-22T11:53:55;18.80;99.90
11764;DHT22;5939;56.522;14.950;2023-07-22T11:56:22;18.90;99.90
11764;DHT22;5939;56.522;14.950;2023-07-22T11:58:51;18.90;99.90
11764;DHT22;5939;56.522;14.950;2023-07-22T12:01:18;18.90;99.90
11764;DHT22;5939;56.522;14.950;2023-07-22T12:03:43;18.90;99.90
11764;DHT22;5939;56.522;14.950;2023-07-22T12:06:09;18.90;99.90
11764;DHT22;5939;56.522;14.950;2023-07-22T12:08:36;18.90;99.90
11764;DHT22;5939;56.522;14.950;2023-07-22T12:11:02;18.90;99.90
11764;DHT22;5939;56.522;14.950;2023-07-22T12:13:35;18.90;99.90
11764;DHT22;5939;56.522;14.950;2023-07-22T12:16:02;18.90;99.90
11764;DHT22;5939;56.522;14.950;2023-07-22T12:18:28;18.80;99.90
11764;DHT22;5939;56.522;14.950;2023-07-22T12:20:53;18.80;99.90
11764;DHT22;5939;56.522;14.950;2023-07-22T12:23:19;18.80;99.90
11764;DHT22;5939;56.522;14.950;2023-07-22T12:25:47;18.80;99.90
11764;DHT22;5939;56.522;14.950;2023-07-22T12:28:12;18.80;99.90
11764;DHT22;5939;56.522;14.950;2023-07-22T12:30:38;18.80;99.90
11764;DHT22;5939;56.522;14.950;2023-07-22T12:33:03;18.90;99.90
11764;DHT22;5939;56.522;14.950;2023-07-22T12:35:29;18.90;99.90
11764;DHT22;5939;56.522;14.950;2023-07-22T12:37:55;18.90;99.90
11764;DHT22;5939;56.522;14.950;2023-07-22T12:40:20;18.90;99.90
11764;DHT22;5939;56.522;14.950;2023-07-22T12:42:46;19.00;99.90
11764;DHT22;5939;56.522;14.950;2023-07-22T12:45:12;19.00;99.90
11764;DHT22;5939;56.522;14.950;2023-07-22T12:47:38;19.00;99.90
11764;DHT22;5939;56.522;14.950;2023-07-22T12:50:05;19.00;99.90
11764;DHT22;5939;56.522;14.950;2023-07-22T12:52:33;19.00;99.90
11764;DHT22;5939;56.522;14.950;2023-07-22T12:54:58;19.00;99.90
11764;DHT22;5939;56.522;14.950;2023-07-22T12:57:24;19.00;99.90
11764;DHT22;5939;56.522;14.950;2023-07-22T12:59:49;19.00;99.90
11764;DHT22;5939;56.522;14.950;2023-07-22T13:02:16;19.00;99.90
11764;DHT22;5939;56.522;14.950;2023-07-22T13:04:42;19.00;99.90
11764;DHT22;5939;56.522;14.950;2023-07-22T13:07:09;19.00;99.90
11764;DHT22;5939;56.522;14.950;2023-07-22T13:09:35;19.00;99.90
11764;DHT22;5939;56.522;14.950;2023-07-22T13:12:00;19.00;99.90
11764;DHT22;5939;56.522;14.950;2023-07-22T13:14:26;19.00;99.90
11764;DHT22;5939;56.522;14.950;2023-07-22T13:16:51;19.00;99.90
11764;DHT22;5939;56.522;14.950;2023-07-22T13:19:17;19.00;99.90
11764;DHT22;5939;56.522;14.950;2023-07-22T13:21:43;19.00;99.90
11764;DHT22;5939;56.522;14.950;2023-07-22T13:24:08;19.00;99.90
11764;DHT22;5939;56.522;14.950;2023-07-22T13:26:34;19.00;99.90
11764;DHT22;5939;56.522;14.950;2023-07-22T13:29:00;19.00;99.90
11764;DHT22;5939;56.522;14.950;2023-07-22T13:31:26;19.00;99.90
11764;DHT22;5939;56.522;14.950;2023-07-22T13:33:51;19.00;99.90
11764;DHT22;5939;56.522;14.950;2023-07-22T13:36:17;18.90;99.90
11764;DHT22;5939;56.522;14.950;2023-07-22T13:38:43;18.90;99.90
11764;DHT22;5939;56.522;14.950;2023-07-22T13:41:08;18.90;99.90
11764;DHT22;5939;56.522;14.950;2023-07-22T13:43:34;18.90;99.90
11764;DHT22;5939;56.522;14.950;2023-07-22T13:45:59;18.90;99.90
11764;DHT22;5939;56.522;14.950;2023-07-22T13:48:25;18.90;99.90
11764;DHT22;5939;56.522;14.950;2023-07-22T13:50:51;18.90;99.90
11764;DHT22;5939;56.522;14.950;2023-07-22T13:53:16;18.90;99.90
11764;DHT22;5939;56.522;14.950;2023-07-22T13:55:42;18.90;99.90
11764;DHT22;5939;56.522;14.950;2023-07-22T13:58:07;18.80;99.90
11764;DHT22;5939;56.522;14.950;2023-07-22T14:00:34;18.80;99.90
11764;DHT22;5939;56.522;14.950;2023-07-22T14:02:59;18.80;99.90
11764;DHT22;5939;56.522;14.950;2023-07-22T14:05:25;18.80;99.90
11764;DHT22;5939;56.522;14.950;2023-07-22T14:07:50;18.80;99.90
11764;DHT22;5939;56.522;14.950;2023-07-22T14:10:16;18.80;99.90
11764;DHT22;5939;56.522;14.950;2023-07-22T14:12:42;18.80;99.90
11764;DHT22;5939;56.522;14.950;2023-07-22T14:15:08;18.80;99.90
11764;DHT22;5939;56.522;14.950;2023-07-22T14:17:33;18.70;99.90
11764;DHT22;5939;56.522;14.950;2023-07-22T14:19:59;18.70;99.90
11764;DHT22;5939;56.522;14.950;2023-07-22T14:22:25;18.70;99.90
11764;DHT22;5939;56.522;14.950;2023-07-22T14:24:51;18.70;99.90
11764;DHT22;5939;56.522;14.950;2023-07-22T14:27:16;18.70;99.90
11764;DHT22;5939;56.522;14.950;2023-07-22T14:29:42;18.70;99.90
11764;DHT22;5939;56.522;14.950;2023-07-22T14:32:08;18.60;99.90
11764;DHT22;5939;56.522;14.950;2023-07-22T14:34:34;18.60;99.90
11764;DHT22;5939;56.522;14.950;2023-07-22T14:37:00;18.60;99.90
11764;DHT22;5939;56.522;14.950;2023-07-22T14:39:25;18.60;99.90
11764;DHT22;5939;56.522;14.950;2023-07-22T14:41:51;18.60;99.90
11764;DHT22;5939;56.522;14.950;2023-07-22T14:44:18;18.60;99.90
11764;DHT22;5939;56.522;14.950;2023-07-22T14:46:43;18.60;99.90
11764;DHT22;5939;56.522;14.950;2023-07-22T14:49:09;18.60;99.90
11764;DHT22;5939;56.522;14.950;2023-07-22T14:51:35;18.60;99.90
11764;DHT22;5939;56.522;14.950;2023-07-22T14:54:02;18.60;99.90
11764;DHT22;5939;56.522;14.950;2023-07-22T14:56:27;18.50;99.90
11764;DHT22;5939;56.522;14.950;2023-07-22T14:58:53;18.50;99.90
11764;DHT22;5939;56.522;14.950;2023-07-22T15:01:20;18.50;99.90
11764;DHT22;5939;56.522;14.950;2023-07-22T15:03:46;18.50;99.90
11764;DHT22;5939;56.522;14.950;2023-07-22T15:06:12;18.50;99.90
11764;DHT22;5939;56.522;14.950;2023-07-22T15:08:38;18.50;99.90
11764;DHT22;5939;56.522;14.950;2023-07-22T15:11:04;18.50;99.90
11764;DHT22;5939;56.522;14.950;2023-07-22T15:13:30;18.50;99.90
11764;DHT22;5939;56.522;14.950;2023-07-22T15:15:56;18.50;99.90
11764;DHT22;5939;56.522;14.950;2023-07-22T15:18:22;18.50;99.90
11764;DHT22;5939;56.522;14.950;2023-07-22T15:20:50;18.50;99.90
11764;DHT22;5939;56.522;14.950;2023-07-22T15:23:16;18.40;99.90
11764;DHT22;5939;56.522;14.950;2023-07-22T15:25:42;18.40;99.90
11764;DHT22;5939;56.522;14.950;2023-07-22T15:28:07;18.40;99.90
11764;DHT22;5939;56.522;14.950;2023-07-22T15:30:33;18.40;99.90
11764;DHT22;5939;56.522;14.950;2023-07-22T15:32:59;18.40;99.90
11764;DHT22;5939;56.522;14.950;2023-07-22T15:35:24;18.40;99.90
11764;DHT22;5939;56.522;14.950;2023-07-22T15:37:50;18.40;99.90
11764;DHT22;5939;56.522;14.950;2023-07-22T15:40:15;18.40;99.90
11764;DHT22;5939;56.522;14.950;2023-07-22T15:42:41;18.40;99.90
11764;DHT22;5939;56.522;14.950;2023-07-22T15:45:07;18.30;99.90